createdAt,value
2022-12-10T00:01:11.557Z,39.60
2022-12-10T00:03:38.903Z,38.70
2022-12-10T00:06:10.582Z,38.50
2022-12-10T00:08:38.245Z,34.63
2022-12-10T00:11:07.821Z,39.93
2022-12-10T00:13:36.903Z,37.80
2022-12-10T00:16:09.271Z,42.40
2022-12-10T00:18:37.399Z,42.20
2022-12-10T00:21:05.853Z,35.27
2022-12-10T00:23:34.087Z,38.17
2022-12-10T00:26:04.946Z,40.63
2022-12-10T00:28:33.362Z,36.60
2022-12-10T00:31:07.119Z,38.73
2022-12-10T00:33:34.576Z,35.07
2022-12-10T00:36:06.932Z,37.20
2022-12-10T00:38:34.331Z,35.67
2022-12-10T00:41:01.335Z,37.97
2022-12-10T00:43:28.485Z,37.20
2022-12-10T00:45:55.941Z,34.97
2022-12-10T00:48:24.570Z,30.17
2022-12-10T00:51:00.380Z,34.60
2022-12-10T00:53:29.139Z,39.10
2022-12-10T00:55:57.060Z,39.73
2022-12-10T00:58:26.900Z,38.27
2022-12-10T01:00:53.928Z,39.13
2022-12-10T01:03:21.171Z,35.07
2022-12-10T01:05:49.485Z,36.00
2022-12-10T01:08:16.423Z,36.67
2022-12-10T01:10:43.572Z,36.50
2022-12-10T01:13:10.524Z,41.67
2022-12-10T01:15:39.998Z,40.47
2022-12-10T01:18:07.087Z,35.27
2022-12-10T01:20:37.154Z,34.77
2022-12-10T01:23:05.531Z,36.90
2022-12-10T01:25:32.639Z,36.17
2022-12-10T01:27:59.538Z,34.67
2022-12-10T01:30:26.568Z,33.53
2022-12-10T01:32:53.529Z,37.83
2022-12-10T01:35:20.483Z,36.37
2022-12-10T01:37:47.482Z,32.30
2022-12-10T01:40:15.970Z,34.30
2022-12-10T01:42:42.963Z,32.43
2022-12-10T01:45:13.565Z,36.33
2022-12-10T01:47:41.184Z,36.40
2022-12-10T01:50:09.859Z,36.47
2022-12-10T01:52:38.373Z,30.43
2022-12-10T01:55:42.693Z,34.63
2022-12-10T01:58:10.882Z,37.20
2022-12-10T02:00:47.498Z,36.93
2022-12-10T02:03:22.420Z,33.27
2022-12-10T02:05:58.158Z,33.93
2022-12-10T02:08:31.429Z,34.20
2022-12-10T02:11:14.502Z,36.00
2022-12-10T02:13:46.723Z,36.33
2022-12-10T02:16:18.817Z,38.97
2022-12-10T02:18:54.473Z,39.67
2022-12-10T02:21:30.889Z,34.07
2022-12-10T02:24:03.949Z,35.80
2022-12-10T02:26:44.346Z,34.00
2022-12-10T02:29:19.542Z,34.87
2022-12-10T02:31:56.131Z,34.07
2022-12-10T02:34:28.194Z,36.33
2022-12-10T02:36:59.610Z,33.33
2022-12-10T02:39:37.444Z,31.87
2022-12-10T02:42:07.502Z,37.33
2022-12-10T02:44:40.609Z,34.73
2022-12-10T02:47:09.807Z,31.90
2022-12-10T02:49:39.935Z,34.00
2022-12-10T02:52:09.839Z,33.47
2022-12-10T02:54:41.940Z,32.40
2022-12-10T02:57:36.830Z,32.97
2022-12-10T03:00:17.280Z,36.10
2022-12-10T03:03:03.430Z,31.50
2022-12-10T03:05:41.382Z,37.87
2022-12-10T03:08:15.805Z,32.93
2022-12-10T03:10:53.684Z,32.17
2022-12-10T03:13:30.086Z,33.27
2022-12-10T03:16:02.931Z,30.53
2022-12-10T03:18:33.891Z,31.07
2022-12-10T03:21:06.781Z,31.97
2022-12-10T03:23:37.936Z,28.43
2022-12-10T03:26:06.600Z,31.53
2022-12-10T03:28:41.891Z,31.53
2022-12-10T03:31:16.063Z,31.00
2022-12-10T03:33:44.041Z,32.73
2022-12-10T03:36:12.349Z,34.50
2022-12-10T03:38:40.524Z,33.67
2022-12-10T03:41:07.877Z,30.53
2022-12-10T03:43:34.932Z,30.70
2022-12-10T03:46:02.170Z,33.93
2022-12-10T03:48:30.497Z,31.27
2022-12-10T03:50:57.477Z,30.90
2022-12-10T03:53:24.410Z,28.20
2022-12-10T03:55:51.363Z,30.97
2022-12-10T03:58:20.475Z,26.60
2022-12-10T04:00:47.815Z,31.60
2022-12-10T04:03:14.757Z,29.70
2022-12-10T04:05:43.002Z,30.20
2022-12-10T04:08:09.981Z,28.53
2022-12-10T04:10:37.707Z,27.67
2022-12-10T04:13:23.467Z,30.13
2022-12-10T04:16:09.049Z,31.00
2022-12-10T04:18:36.047Z,24.33
2022-12-10T04:21:23.774Z,31.60
2022-12-10T04:24:09.395Z,30.97
2022-12-10T04:26:54.599Z,26.83
2022-12-10T04:29:22.752Z,26.30
2022-12-10T04:31:49.728Z,24.37
2022-12-10T04:34:17.141Z,26.67
2022-12-10T04:36:46.554Z,27.00
2022-12-10T04:39:14.785Z,27.60
2022-12-10T04:41:44.269Z,22.70
2022-12-10T04:44:12.060Z,22.60
2022-12-10T04:46:39.483Z,21.33
2022-12-10T04:49:06.766Z,24.90
2022-12-10T04:51:34.509Z,22.90
2022-12-10T04:54:03.454Z,23.50
2022-12-10T04:56:31.155Z,23.27
2022-12-10T04:58:59.353Z,16.03
2022-12-10T05:01:27.704Z,17.20
2022-12-10T05:03:54.907Z,21.70
2022-12-10T05:06:22.090Z,22.23
2022-12-10T05:08:49.133Z,23.30
2022-12-10T05:11:20.283Z,19.43
2022-12-10T05:13:48.179Z,11.53
2022-12-10T05:16:19.194Z,12.53
2022-12-10T05:18:46.554Z,15.90
2022-12-10T05:21:16.804Z,19.53
2022-12-10T05:23:47.113Z,21.40
2022-12-10T05:26:18.929Z,22.33
2022-12-10T05:28:48.631Z,20.93
2022-12-10T05:31:18.306Z,18.97
2022-12-10T05:33:45.823Z,18.63
2022-12-10T05:36:16.336Z,19.27
2022-12-10T05:38:44.348Z,21.03
2022-12-10T05:41:14.795Z,17.40
2022-12-10T05:43:44.931Z,19.43
2022-12-10T05:46:15.801Z,23.87
2022-12-10T05:48:42.867Z,21.93
2022-12-10T05:51:12.997Z,21.30
2022-12-10T05:53:40.977Z,19.47
2022-12-10T05:56:11.758Z,19.87
2022-12-10T05:58:40.447Z,21.37
2022-12-10T06:01:11.949Z,22.67
2022-12-10T06:03:39.288Z,23.73
2022-12-10T06:06:06.855Z,27.70
2022-12-10T06:08:35.882Z,24.53
2022-12-10T06:11:03.766Z,21.70
2022-12-10T06:13:30.692Z,22.63
2022-12-10T06:15:57.640Z,18.60
2022-12-10T06:18:26.155Z,17.90
2022-12-10T06:20:53.120Z,20.63
2022-12-10T06:23:20.042Z,24.10
2022-12-10T06:25:46.979Z,24.27
2022-12-10T06:28:13.928Z,25.27
2022-12-10T06:30:40.943Z,24.53
2022-12-10T06:33:07.874Z,23.80
2022-12-10T06:35:38.141Z,24.03
2022-12-10T06:38:05.131Z,26.07
2022-12-10T06:40:32.137Z,15.73
2022-12-10T06:42:59.038Z,13.57
2022-12-10T06:45:25.955Z,20.40
2022-12-10T06:47:52.902Z,23.07
2022-12-10T06:50:19.841Z,27.00
2022-12-10T06:52:51.840Z,24.73
2022-12-10T06:55:21.800Z,24.10
2022-12-10T06:57:51.870Z,27.27
2022-12-10T07:00:22.163Z,25.33
2022-12-10T07:02:49.767Z,33.20
2022-12-10T07:05:17.490Z,30.87
2022-12-10T07:07:44.673Z,29.70
2022-12-10T07:10:14.498Z,30.77
2022-12-10T07:12:41.493Z,28.47
2022-12-10T07:15:09.641Z,34.70
2022-12-10T07:17:36.625Z,33.37
2022-12-10T07:20:04.416Z,32.10
2022-12-10T07:22:31.391Z,34.77
2022-12-10T07:24:58.351Z,32.03
2022-12-10T07:27:26.747Z,33.30
2022-12-10T07:29:53.750Z,32.03
2022-12-10T07:32:20.705Z,34.63
2022-12-10T07:34:47.603Z,33.13
2022-12-10T07:37:14.615Z,34.20
2022-12-10T07:39:43.778Z,27.77
2022-12-10T07:42:10.746Z,28.53
2022-12-10T07:44:39.042Z,28.87
2022-12-10T07:47:06.433Z,29.53
2022-12-10T07:49:33.382Z,28.97
2022-12-10T07:52:00.307Z,30.50
2022-12-10T07:54:27.253Z,26.53
2022-12-10T07:56:54.153Z,29.77
2022-12-10T07:59:21.109Z,25.60
2022-12-10T08:01:50.291Z,22.70
2022-12-10T08:04:17.307Z,25.77
2022-12-10T08:06:44.608Z,26.17
2022-12-10T08:09:13.051Z,26.47
2022-12-10T08:11:40.074Z,22.87
2022-12-10T08:14:07.053Z,17.67
2022-12-10T08:16:34.243Z,25.80
2022-12-10T08:19:03.099Z,26.73
2022-12-10T08:21:32.547Z,26.43
2022-12-10T08:24:01.119Z,34.23
2022-12-10T08:26:31.488Z,28.67
2022-12-10T08:28:59.866Z,32.03
2022-12-10T08:31:31.837Z,30.00
2022-12-10T08:34:02.706Z,31.53
2022-12-10T08:36:31.262Z,26.27
2022-12-10T08:38:58.247Z,31.37
2022-12-10T08:41:25.277Z,29.10
2022-12-10T08:43:53.414Z,28.97
2022-12-10T08:46:20.705Z,31.27
2022-12-10T08:48:47.847Z,33.00
2022-12-10T08:51:19.294Z,81.37
2022-12-10T08:53:47.265Z,33.43
2022-12-10T08:56:14.384Z,35.00
2022-12-10T08:58:42.085Z,32.80
2022-12-10T09:01:10.895Z,33.30
2022-12-10T09:03:38.428Z,39.27
2022-12-10T09:06:07.867Z,32.67
2022-12-10T09:08:38.878Z,22.63
2022-12-10T09:11:08.027Z,30.43
2022-12-10T09:13:35.237Z,52.87
2022-12-10T09:16:02.624Z,33.80
2022-12-10T09:18:29.656Z,30.13
2022-12-10T09:20:56.656Z,32.73
2022-12-10T09:23:24.253Z,30.40
2022-12-10T09:25:53.005Z,34.33
2022-12-10T09:28:19.987Z,23.23
2022-12-10T09:30:55.878Z,22.20
2022-12-10T09:33:22.917Z,27.73
2022-12-10T09:35:49.837Z,27.87
2022-12-10T09:38:17.019Z,24.97
2022-12-10T09:40:51.132Z,30.10
2022-12-10T09:43:33.689Z,22.30
2022-12-10T09:46:13.027Z,21.03
2022-12-10T09:48:59.780Z,22.37
2022-12-10T09:51:35.133Z,28.00
2022-12-10T09:54:12.580Z,25.93
2022-12-10T09:56:41.007Z,30.70
2022-12-10T09:59:22.898Z,22.60
2022-12-10T10:02:02.929Z,23.03
2022-12-10T10:04:30.130Z,24.57
2022-12-10T10:06:58.640Z,24.00
2022-12-10T10:09:26.006Z,24.43
2022-12-10T10:11:54.278Z,26.50
2022-12-10T10:14:28.353Z,24.77
2022-12-10T10:17:02.091Z,21.07
2022-12-10T10:19:35.040Z,18.73
2022-12-10T10:22:02.335Z,19.57
2022-12-10T10:24:36.812Z,22.73
2022-12-10T10:27:15.734Z,26.03
2022-12-10T10:29:46.444Z,22.77
2022-12-10T10:32:20.113Z,18.20
2022-12-10T10:34:53.768Z,17.60
2022-12-10T10:37:26.250Z,20.30
2022-12-10T10:39:53.786Z,19.00
2022-12-10T10:42:38.890Z,18.10
2022-12-10T10:45:37.445Z,20.97
2022-12-10T10:48:10.934Z,19.93
2022-12-10T10:50:41.442Z,18.63
2022-12-10T10:53:47.440Z,14.90
2022-12-10T10:56:18.095Z,11.23
2022-12-10T10:58:56.038Z,9.23
2022-12-10T11:01:27.524Z,13.70
2022-12-10T11:03:59.060Z,15.33
2022-12-10T11:06:26.955Z,16.40
2022-12-10T11:08:58.952Z,19.70
2022-12-10T11:11:35.485Z,18.50
2022-12-10T11:14:23.630Z,20.97
2022-12-10T11:17:01.676Z,24.23
2022-12-10T11:19:28.761Z,20.57
2022-12-10T11:21:55.851Z,22.30
2022-12-10T11:24:23.202Z,24.27
2022-12-10T11:27:14.303Z,23.70
2022-12-10T11:29:58.245Z,19.70
2022-12-10T11:32:57.682Z,21.50
2022-12-10T11:35:43.500Z,20.63
2022-12-10T11:38:28.604Z,21.43
2022-12-10T11:41:11.796Z,22.70
2022-12-10T11:44:00.819Z,23.77
2022-12-10T11:47:01.377Z,22.73
2022-12-10T11:49:47.445Z,18.13
2022-12-10T11:52:30.970Z,18.97
2022-12-10T11:55:15.989Z,18.40
2022-12-10T11:57:52.918Z,15.77
2022-12-10T12:00:24.430Z,17.33
2022-12-10T12:03:26.677Z,20.47
2022-12-10T12:06:21.208Z,13.10
2022-12-10T12:09:02.027Z,15.10
2022-12-10T12:11:51.307Z,13.10
2022-12-10T12:14:26.551Z,13.67
2022-12-10T12:17:05.785Z,14.17
2022-12-10T12:19:38.777Z,14.90
2022-12-10T12:22:16.192Z,15.03
2022-12-10T12:24:48.479Z,13.73
2022-12-10T12:27:27.995Z,17.97
2022-12-10T12:30:08.110Z,11.93
2022-12-10T12:32:47.791Z,14.13
2022-12-10T12:35:22.592Z,16.90
2022-12-10T12:37:58.759Z,13.47
2022-12-10T12:40:31.163Z,17.87
2022-12-10T12:43:02.990Z,14.07
2022-12-10T12:45:39.011Z,13.57
2022-12-10T12:48:20.856Z,17.17
2022-12-10T12:50:52.233Z,17.13
2022-12-10T12:53:24.412Z,18.03
2022-12-10T12:56:03.410Z,16.37
2022-12-10T12:58:41.747Z,18.23
2022-12-10T13:01:25.537Z,16.47
2022-12-10T13:03:53.006Z,18.07
2022-12-10T13:06:25.959Z,15.33
2022-12-10T13:09:26.735Z,21.20
2022-12-10T13:12:29.401Z,18.23
2022-12-10T13:15:17.588Z,17.50
2022-12-10T13:18:07.969Z,15.30
2022-12-10T13:20:41.464Z,15.47
2022-12-10T13:23:35.780Z,16.63
2022-12-10T13:26:26.285Z,15.83
2022-12-10T13:28:55.461Z,16.47
2022-12-10T13:31:37.995Z,15.97
2022-12-10T13:34:34.106Z,18.13
2022-12-10T13:37:16.443Z,17.70
2022-12-10T13:39:55.290Z,16.10
2022-12-10T13:42:52.604Z,17.97
2022-12-10T13:45:32.476Z,18.47
2022-12-10T13:48:32.067Z,24.73
2022-12-10T13:51:29.162Z,18.47
2022-12-10T13:54:31.196Z,21.93
2022-12-10T13:57:19.336Z,20.47
2022-12-10T14:00:07.001Z,18.37
2022-12-10T14:03:11.772Z,20.30
2022-12-10T14:05:56.623Z,18.87
2022-12-10T14:08:29.227Z,19.33
2022-12-10T14:10:59.673Z,21.63
2022-12-10T14:13:39.476Z,19.47
2022-12-10T14:16:14.966Z,22.83
2022-12-10T14:18:47.116Z,24.03
2022-12-10T14:21:16.514Z,23.83
2022-12-10T14:23:50.676Z,20.83
2022-12-10T14:26:28.610Z,24.57
2022-12-10T14:28:58.637Z,23.50
2022-12-10T14:31:33.013Z,25.70
2022-12-10T14:34:05.436Z,24.50
2022-12-10T14:36:38.322Z,21.53
2022-12-10T14:39:13.130Z,21.40
2022-12-10T14:41:41.188Z,25.83
2022-12-10T14:44:16.250Z,25.47
2022-12-10T14:46:47.281Z,21.73
2022-12-10T14:49:20.697Z,25.50
2022-12-10T14:51:47.784Z,23.73
2022-12-10T14:54:32.283Z,25.20
2022-12-10T14:57:04.478Z,25.10
2022-12-10T14:59:40.427Z,23.20
2022-12-10T15:02:20.306Z,26.67
2022-12-10T15:04:50.074Z,25.67
2022-12-10T15:07:24.249Z,25.87
2022-12-10T15:09:54.286Z,25.13
2022-12-10T15:12:32.730Z,23.97
2022-12-10T15:15:09.365Z,27.47
2022-12-10T15:17:44.460Z,27.50
2022-12-10T15:20:22.976Z,23.73
2022-12-10T15:22:50.356Z,26.50
2022-12-10T15:25:29.188Z,26.37
2022-12-10T15:28:01.114Z,27.30
2022-12-10T15:30:40.045Z,23.40
2022-12-10T15:33:30.384Z,22.93
2022-12-10T15:36:00.477Z,28.50
2022-12-10T15:38:29.470Z,23.60
2022-12-10T15:41:22.713Z,23.77
2022-12-10T15:44:01.210Z,25.63
2022-12-10T15:46:28.580Z,28.77
2022-12-10T15:48:56.876Z,27.60
2022-12-10T15:51:24.847Z,27.50
2022-12-10T15:53:52.481Z,27.60
2022-12-10T15:56:19.398Z,25.37
2022-12-10T15:58:46.415Z,25.60
2022-12-10T16:01:16.618Z,25.07
2022-12-10T16:03:46.224Z,27.23
2022-12-10T16:06:19.664Z,26.37
2022-12-10T16:08:46.929Z,28.00
2022-12-10T16:11:19.315Z,25.37
2022-12-10T16:13:53.411Z,22.03
2022-12-10T16:16:21.224Z,21.93
2022-12-10T16:18:48.313Z,27.17
2022-12-10T16:21:17.638Z,25.23
2022-12-10T16:23:44.634Z,22.73
2022-12-10T16:26:17.279Z,25.73
2022-12-10T16:28:45.352Z,24.30
2022-12-10T16:31:16.149Z,25.57
2022-12-10T16:33:43.527Z,27.27
2022-12-10T16:36:12.059Z,25.00
2022-12-10T16:38:41.453Z,23.23
2022-12-10T16:41:17.314Z,24.40
2022-12-10T16:43:44.331Z,24.63
2022-12-10T16:46:12.653Z,25.23
2022-12-10T16:48:40.253Z,25.77
2022-12-10T16:51:17.997Z,23.13
2022-12-10T16:53:46.308Z,22.83
2022-12-10T16:56:15.891Z,24.93
2022-12-10T16:58:44.175Z,25.53
2022-12-10T17:01:19.988Z,22.07
2022-12-10T17:03:47.898Z,21.30
2022-12-10T17:06:15.286Z,24.03
2022-12-10T17:08:42.697Z,25.30
2022-12-10T17:11:38.583Z,23.93
2022-12-10T17:14:10.162Z,25.17
2022-12-10T17:16:37.173Z,29.67
2022-12-10T17:19:04.182Z,25.67
2022-12-10T17:21:34.296Z,26.33
2022-12-10T17:24:06.335Z,24.50
2022-12-10T17:26:38.799Z,26.40
2022-12-10T17:29:14.289Z,25.80
2022-12-10T17:31:41.640Z,26.13
2022-12-10T17:34:09.927Z,25.33
2022-12-10T17:36:36.875Z,23.73
2022-12-10T17:39:04.582Z,26.07
2022-12-10T17:41:31.587Z,25.23
2022-12-10T17:43:59.947Z,24.87
2022-12-10T17:46:27.153Z,24.50
2022-12-10T17:48:54.111Z,26.47
2022-12-10T17:51:21.144Z,25.77
2022-12-10T17:53:48.363Z,24.80
2022-12-10T17:56:18.653Z,27.87
2022-12-10T17:58:47.117Z,22.40
2022-12-10T18:01:17.158Z,25.73
2022-12-10T18:03:44.364Z,28.20
2022-12-10T18:06:16.695Z,25.90
2022-12-10T18:08:44.787Z,27.57
2022-12-10T18:11:13.874Z,24.53
2022-12-10T18:13:46.083Z,25.53
2022-12-10T18:16:19.546Z,25.23
2022-12-10T18:18:47.429Z,26.63
2022-12-10T18:21:21.111Z,25.90
2022-12-10T18:23:49.638Z,28.10
2022-12-10T18:26:20.665Z,22.80
2022-12-10T18:29:19.443Z,25.50
2022-12-10T18:32:14.024Z,22.73
2022-12-10T18:34:41.118Z,20.50
2022-12-10T18:37:14.775Z,22.70
2022-12-10T18:39:43.077Z,26.10
2022-12-10T18:42:09.985Z,26.33
2022-12-10T18:44:37.428Z,21.80
2022-12-10T18:47:10.449Z,25.63
2022-12-10T18:49:38.733Z,29.73
2022-12-10T18:52:05.935Z,22.53
2022-12-10T18:54:32.890Z,24.70
2022-12-10T18:59:46.723Z,28.70
2022-12-10T19:02:15.093Z,26.37
2022-12-10T19:04:42.881Z,30.67
2022-12-10T19:07:12.965Z,28.40
2022-12-10T19:09:40.354Z,21.47
2022-12-10T19:12:07.739Z,23.83
2022-12-10T19:14:34.742Z,23.53
2022-12-10T19:17:01.829Z,22.30
2022-12-10T19:19:30.117Z,26.23
2022-12-10T19:21:57.086Z,26.00
2022-12-10T19:24:24.067Z,23.33
2022-12-10T19:26:51.121Z,24.77
2022-12-10T19:29:21.307Z,22.50
2022-12-10T19:31:50.782Z,22.10
2022-12-10T19:34:20.712Z,23.87
2022-12-10T19:36:52.339Z,22.00
2022-12-10T19:39:23.168Z,22.50
2022-12-10T19:41:51.404Z,23.00
2022-12-10T19:44:18.614Z,28.43
2022-12-10T19:46:46.331Z,22.77
2022-12-10T19:49:15.611Z,22.63
2022-12-10T19:51:43.400Z,23.77
2022-12-10T19:54:12.212Z,26.33
2022-12-10T19:56:40.848Z,23.57
2022-12-10T19:59:15.139Z,25.00
2022-12-10T20:01:42.901Z,24.83
2022-12-10T20:04:10.421Z,25.53
2022-12-10T20:06:41.283Z,21.00
2022-12-10T20:09:18.592Z,22.27
2022-12-10T20:11:46.302Z,23.60
2022-12-10T20:14:13.302Z,23.73
2022-12-10T20:16:41.544Z,24.43
2022-12-10T20:19:11.160Z,23.10
2022-12-10T20:21:38.162Z,25.90
2022-12-10T20:24:06.857Z,21.77
2022-12-10T20:26:38.466Z,24.83
2022-12-10T20:29:17.718Z,22.67
2022-12-10T20:31:47.036Z,21.40
2022-12-10T20:34:14.598Z,26.33
2022-12-10T20:36:42.239Z,24.63
2022-12-10T20:39:18.470Z,23.00
2022-12-10T20:41:48.822Z,20.37
2022-12-10T20:44:16.694Z,23.07
2022-12-10T20:46:44.187Z,22.17
2022-12-10T20:49:12.663Z,21.97
2022-12-10T20:51:39.661Z,22.63
2022-12-10T20:54:07.230Z,24.77
2022-12-10T20:56:35.018Z,23.93
2022-12-10T20:59:04.167Z,22.93
2022-12-10T21:01:31.764Z,21.03
2022-12-10T21:03:59.605Z,21.50
2022-12-10T21:06:30.307Z,22.03
2022-12-10T21:08:57.679Z,22.03
2022-12-10T21:11:24.994Z,24.63
2022-12-10T21:13:52.062Z,22.17
2022-12-10T21:16:25.247Z,21.17
2022-12-10T21:18:54.063Z,23.83
2022-12-10T21:21:24.068Z,25.87
2022-12-10T21:23:51.157Z,25.33
2022-12-10T21:26:18.255Z,22.53
2022-12-10T21:28:45.617Z,21.77
2022-12-10T21:31:21.640Z,21.43
2022-12-10T21:33:49.324Z,20.70
2022-12-10T21:36:19.344Z,22.97
2022-12-10T21:38:46.453Z,22.23
2022-12-10T21:41:38.309Z,19.80
2022-12-10T21:44:05.521Z,21.13
2022-12-10T21:46:34.466Z,19.80
2022-12-10T21:49:01.739Z,24.63
2022-12-10T21:51:29.020Z,20.67
2022-12-10T21:53:59.370Z,17.67
2022-12-10T21:56:27.557Z,18.77
2022-12-10T21:58:54.909Z,22.03
2022-12-10T22:01:22.236Z,22.73
2022-12-10T22:03:50.587Z,19.13
2022-12-10T22:06:23.699Z,22.27
2022-12-10T22:08:50.987Z,18.87
2022-12-10T22:11:18.247Z,20.40
2022-12-10T22:13:45.349Z,18.17
2022-12-10T22:16:12.503Z,18.40
2022-12-10T22:18:39.478Z,18.00
2022-12-10T22:21:09.049Z,20.67
2022-12-10T22:23:35.982Z,20.07
2022-12-10T22:26:08.883Z,16.63
2022-12-10T22:28:35.942Z,20.33
2022-12-10T22:31:08.161Z,20.57
2022-12-10T22:33:35.694Z,19.57
2022-12-10T22:36:03.062Z,17.97
2022-12-10T22:38:31.337Z,21.13
2022-12-10T22:41:00.358Z,21.83
2022-12-10T22:43:49.947Z,19.60
2022-12-10T22:46:14.413Z,23.67
2022-12-10T22:48:41.366Z,21.10
2022-12-10T22:51:08.960Z,18.13
2022-12-10T22:53:37.404Z,18.23
2022-12-10T22:56:07.363Z,18.27
2022-12-10T22:58:34.604Z,19.60
2022-12-10T23:01:02.441Z,19.70
2022-12-10T23:03:29.618Z,19.37
2022-12-10T23:05:58.311Z,18.97
2022-12-10T23:08:28.304Z,19.40
2022-12-10T23:10:56.622Z,18.47
2022-12-10T23:13:23.573Z,16.57
2022-12-10T23:15:53.143Z,16.57
2022-12-10T23:18:22.145Z,16.60
2022-12-10T23:20:50.659Z,17.83
2022-12-10T23:23:18.030Z,17.70
2022-12-10T23:25:46.324Z,17.10
2022-12-10T23:28:15.113Z,20.20
2022-12-10T23:30:42.846Z,15.57
2022-12-10T23:33:10.118Z,13.43
2022-12-10T23:35:40.901Z,19.67
2022-12-10T23:38:08.393Z,17.07
2022-12-10T23:40:35.683Z,17.40
2022-12-10T23:43:02.662Z,18.43
2022-12-10T23:45:31.024Z,19.60
2022-12-10T23:47:58.016Z,18.83
2022-12-10T23:50:25.253Z,17.53
2022-12-10T23:52:54.101Z,18.50
2022-12-10T23:55:21.403Z,15.80
2022-12-10T23:57:48.374Z,16.03
